sensor_id;sensor_type;location;lat;lon;timestamp;pressure;altitude;pressure_sealevel;temperature;humidity
13709;BME280;54933;51.908;7.730;2023-03-15T00:00:39;100349.59;;;20.94;62.55
13709;BME280;54933;51.908;7.730;2023-03-15T00:03:06;100359.38;;;20.95;62.37
13709;BME280;54933;51.908;7.730;2023-03-15T00:05:32;100353.13;;;20.94;62.67
13709;BME280;54933;51.908;7.730;2023-03-15T00:07:57;100360.41;;;20.94;62.65
13709;BME280;54933;51.908;7.730;2023-03-15T00:10:23;100363.94;;;20.94;62.45
13709;BME280;54933;51.908;7.730;2023-03-15T00:12:48;100372.88;;;20.95;62.50
13709;BME280;54933;51.908;7.730;2023-03-15T00:15:13;100371.81;;;20.96;62.66
13709;BME280;54933;51.908;7.730;2023-03-15T00:17:40;100380.75;;;20.96;62.45
13709;BME280;54933;51.908;7.730;2023-03-15T00:20:05;100394.25;;;20.96;63.02
13709;BME280;54933;51.908;7.730;2023-03-15T00:22:31;100386.16;;;20.96;62.51
13709;BME280;54933;51.908;7.730;2023-03-15T00:24:56;100387.81;;;20.97;62.76
13709;BME280;54933;51.908;7.730;2023-03-15T00:27:21;100383.25;;;20.98;62.68
13709;BME280;54933;51.908;7.730;2023-03-15T00:29:47;100388.44;;;20.99;62.62
13709;BME280;54933;51.908;7.730;2023-03-15T00:32:12;100386.75;;;20.98;62.60
13709;BME280;54933;51.908;7.730;2023-03-15T00:34:37;100395.47;;;21.00;62.81
13709;BME280;54933;51.908;7.730;2023-03-15T00:37:03;100396.31;;;21.01;62.75
13709;BME280;54933;51.908;7.730;2023-03-15T00:39:28;100395.47;;;21.00;62.63
13709;BME280;54933;51.908;7.730;2023-03-15T00:41:53;100403.56;;;21.00;62.88
13709;BME280;54933;51.908;7.730;2023-03-15T00:44:23;100410.66;;;21.01;62.79
13709;BME280;54933;51.908;7.730;2023-03-15T00:46:49;100423.31;;;21.01;62.77
13709;BME280;54933;51.908;7.730;2023-03-15T00:49:15;100424.16;;;21.01;62.91
13709;BME280;54933;51.908;7.730;2023-03-15T00:51:40;100424.97;;;21.02;62.98
13709;BME280;54933;51.908;7.730;2023-03-15T00:54:05;100429.56;;;21.01;62.86
13709;BME280;54933;51.908;7.730;2023-03-15T00:56:30;100428.50;;;21.02;62.51
13709;BME280;54933;51.908;7.730;2023-03-15T00:58:56;100431.19;;;21.02;62.75
13709;BME280;54933;51.908;7.730;2023-03-15T01:01:26;100442.00;;;21.02;62.69
13709;BME280;54933;51.908;7.730;2023-03-15T01:03:52;100440.13;;;21.03;62.77
13709;BME280;54933;51.908;7.730;2023-03-15T01:06:20;100442.00;;;21.02;62.79
13709;BME280;54933;51.908;7.730;2023-03-15T01:08:47;100442.00;;;21.02;62.71
13709;BME280;54933;51.908;7.730;2023-03-15T01:11:21;100443.66;;;21.03;62.79
13709;BME280;54933;51.908;7.730;2023-03-15T01:13:48;100450.72;;;21.04;62.75
13709;BME280;54933;51.908;7.730;2023-03-15T01:16:14;100449.03;;;21.03;62.74
13709;BME280;54933;51.908;7.730;2023-03-15T01:18:39;100444.69;;;21.02;62.76
13709;BME280;54933;51.908;7.730;2023-03-15T01:21:10;100449.03;;;21.03;62.73
13709;BME280;54933;51.908;7.730;2023-03-15T01:23:36;100449.03;;;21.03;63.13
13709;BME280;54933;51.908;7.730;2023-03-15T01:26:02;100443.66;;;21.03;62.86
13709;BME280;54933;51.908;7.730;2023-03-15T01:28:28;100449.03;;;21.03;62.82
13709;BME280;54933;51.908;7.730;2023-03-15T01:30:53;100445.31;;;21.04;62.67
13709;BME280;54933;51.908;7.730;2023-03-15T01:33:19;100442.59;;;21.04;62.76
13709;BME280;54933;51.908;7.730;2023-03-15T01:35:45;100443.66;;;21.03;62.82
13709;BME280;54933;51.908;7.730;2023-03-15T01:38:11;100440.94;;;21.03;62.64
13709;BME280;54933;51.908;7.730;2023-03-15T01:40:44;100444.47;;;21.04;62.77
13709;BME280;54933;51.908;7.730;2023-03-15T01:43:29;100440.94;;;21.03;62.81
13709;BME280;54933;51.908;7.730;2023-03-15T01:46:03;100439.06;;;21.04;63.10
13709;BME280;54933;51.908;7.730;2023-03-15T01:48:40;100438.25;;;21.03;62.71
13709;BME280;54933;51.908;7.730;2023-03-15T01:51:42;100441.78;;;21.04;62.72
13709;BME280;54933;51.908;7.730;2023-03-15T01:54:29;100443.66;;;21.03;62.74
13709;BME280;54933;51.908;7.730;2023-03-15T01:57:18;100443.66;;;21.03;62.84
13709;BME280;54933;51.908;7.730;2023-03-15T01:59:52;100445.53;;;21.03;62.75
13709;BME280;54933;51.908;7.730;2023-03-15T02:02:20;100447.41;;;21.02;62.86
13709;BME280;54933;51.908;7.730;2023-03-15T02:04:56;100447.41;;;21.02;62.73
13709;BME280;54933;51.908;7.730;2023-03-15T02:07:25;100449.28;;;21.02;62.68
13709;BME280;54933;51.908;7.730;2023-03-15T02:10:09;100460.91;;;21.02;62.68
13709;BME280;54933;51.908;7.730;2023-03-15T02:12:41;100467.38;;;21.01;62.90
13709;BME280;54933;51.908;7.730;2023-03-15T02:15:08;100471.72;;;21.02;62.61
13709;BME280;54933;51.908;7.730;2023-03-15T02:17:37;100471.94;;;21.01;62.78
13709;BME280;54933;51.908;7.730;2023-03-15T02:25:19;100477.13;;;21.02;62.63
13709;BME280;54933;51.908;7.730;2023-03-15T02:27:48;100477.13;;;21.02;62.61
13709;BME280;54933;51.908;7.730;2023-03-15T02:30:13;100476.28;;;21.02;62.49
13709;BME280;54933;51.908;7.730;2023-03-15T02:32:39;100473.81;;;21.00;62.68
13709;BME280;54933;51.908;7.730;2023-03-15T02:35:05;100489.78;;;21.02;62.57
13709;BME280;54933;51.908;7.730;2023-03-15T02:37:30;100474.41;;;21.02;62.55
13709;BME280;54933;51.908;7.730;2023-03-15T02:39:56;100479.81;;;21.02;62.45
13709;BME280;54933;51.908;7.730;2023-03-15T02:42:21;100487.94;;;21.02;62.65
13709;BME280;54933;51.908;7.730;2023-03-15T02:44:48;100494.38;;;21.01;62.69
13709;BME280;54933;51.908;7.730;2023-03-15T02:47:26;100489.00;;;21.01;62.56
13709;BME280;54933;51.908;7.730;2023-03-15T02:49:54;100497.09;;;21.01;62.55
13709;BME280;54933;51.908;7.730;2023-03-15T02:52:21;100496.03;;;21.02;62.62
13709;BME280;54933;51.908;7.730;2023-03-15T02:54:46;100504.38;;;21.01;62.64
13709;BME280;54933;51.908;7.730;2023-03-15T02:57:13;100507.06;;;21.01;62.81
13709;BME280;54933;51.908;7.730;2023-03-15T02:59:39;100503.53;;;21.00;62.67
13709;BME280;54933;51.908;7.730;2023-03-15T03:02:06;100510.59;;;21.01;62.67
13709;BME280;54933;51.908;7.730;2023-03-15T03:04:32;100513.31;;;21.01;62.54
13709;BME280;54933;51.908;7.730;2023-03-15T03:06:57;100512.25;;;21.02;62.56
13709;BME280;54933;51.908;7.730;2023-03-15T03:09:23;100521.41;;;21.01;62.75
13709;BME280;54933;51.908;7.730;2023-03-15T03:11:48;100521.41;;;21.01;62.81
13709;BME280;54933;51.908;7.730;2023-03-15T03:14:13;100528.44;;;21.02;62.72
13709;BME280;54933;51.908;7.730;2023-03-15T03:16:39;100536.56;;;21.02;62.61
13709;BME280;54933;51.908;7.730;2023-03-15T03:19:06;100539.25;;;21.02;62.76
13709;BME280;54933;51.908;7.730;2023-03-15T03:21:31;100543.59;;;21.03;62.73
13709;BME280;54933;51.908;7.730;2023-03-15T03:23:56;100546.28;;;21.03;62.82
13709;BME280;54933;51.908;7.730;2023-03-15T03:26:21;100549.22;;;21.02;62.49
13709;BME280;54933;51.908;7.730;2023-03-15T03:28:51;100551.69;;;21.03;62.66
13709;BME280;54933;51.908;7.730;2023-03-15T03:31:20;100554.41;;;21.03;62.72
13709;BME280;54933;51.908;7.730;2023-03-15T03:33:45;100565.22;;;21.03;62.73
13709;BME280;54933;51.908;7.730;2023-03-15T03:36:11;100576.63;;;21.05;62.65
13709;BME280;54933;51.908;7.730;2023-03-15T03:38:41;100581.19;;;21.05;62.61
13709;BME280;54933;51.908;7.730;2023-03-15T03:41:08;100581.19;;;21.05;62.55
13709;BME280;54933;51.908;7.730;2023-03-15T03:43:34;100589.06;;;21.06;62.46
13709;BME280;54933;51.908;7.730;2023-03-15T03:45:59;100585.56;;;21.06;62.78
13709;BME280;54933;51.908;7.730;2023-03-15T03:48:25;100589.06;;;21.06;62.53
13709;BME280;54933;51.908;7.730;2023-03-15T03:50:50;100591.78;;;21.06;62.35
13709;BME280;54933;51.908;7.730;2023-03-15T03:53:15;100590.75;;;21.07;62.66
13709;BME280;54933;51.908;7.730;2023-03-15T03:55:41;100601.56;;;21.07;62.62
13709;BME280;54933;51.908;7.730;2023-03-15T03:58:07;100604.25;;;21.07;62.46
13709;BME280;54933;51.908;7.730;2023-03-15T04:00:32;100606.97;;;21.07;62.50
13709;BME280;54933;51.908;7.730;2023-03-15T04:02:58;100613.19;;;21.08;62.48
13709;BME280;54933;51.908;7.730;2023-03-15T04:05:23;100610.28;;;21.09;62.62
13709;BME280;54933;51.908;7.730;2023-03-15T04:07:48;100612.97;;;21.09;62.47
13709;BME280;54933;51.908;7.730;2023-03-15T04:10:14;100617.53;;;21.09;62.46
13709;BME280;54933;51.908;7.730;2023-03-15T04:12:41;100626.47;;;21.09;62.41
13709;BME280;54933;51.908;7.730;2023-03-15T04:15:08;100620.03;;;21.10;62.56
13709;BME280;54933;51.908;7.730;2023-03-15T04:17:33;100635.16;;;21.11;62.32
13709;BME280;54933;51.908;7.730;2023-03-15T04:19:58;100626.47;;;21.09;62.44
13709;BME280;54933;51.908;7.730;2023-03-15T04:22:26;100628.13;;;21.10;62.30
13709;BME280;54933;51.908;7.730;2023-03-15T04:24:51;100635.16;;;21.11;62.41
13709;BME280;54933;51.908;7.730;2023-03-15T04:27:16;100646.81;;;21.12;62.54
13709;BME280;54933;51.908;7.730;2023-03-15T04:29:42;100653.06;;;21.12;62.45
13709;BME280;54933;51.908;7.730;2023-03-15T04:32:08;100648.47;;;21.13;62.34
13709;BME280;54933;51.908;7.730;2023-03-15T04:34:34;100650.97;;;21.14;62.37
13709;BME280;54933;51.908;7.730;2023-03-15T04:37:03;100644.50;;;21.15;62.39
13709;BME280;54933;51.908;7.730;2023-03-15T04:39:30;100647.22;;;21.15;62.20
13709;BME280;54933;51.908;7.730;2023-03-15T04:41:55;100647.22;;;21.15;62.47
13709;BME280;54933;51.908;7.730;2023-03-15T04:44:20;100643.44;;;21.16;62.37
13709;BME280;54933;51.908;7.730;2023-03-15T04:46:45;100648.84;;;21.16;62.22
13709;BME280;54933;51.908;7.730;2023-03-15T04:49:11;100652.59;;;21.15;62.21
13709;BME280;54933;51.908;7.730;2023-03-15T04:51:36;100660.09;;;21.13;62.06
13709;BME280;54933;51.908;7.730;2023-03-15T04:54:02;100670.06;;;21.13;61.76
13709;BME280;54933;51.908;7.730;2023-03-15T04:56:28;100667.59;;;21.11;61.68
13709;BME280;54933;51.908;7.730;2023-03-15T04:58:54;100671.34;;;21.10;61.75
13709;BME280;54933;51.908;7.730;2023-03-15T05:01:22;100680.53;;;21.09;61.69
13709;BME280;54933;51.908;7.730;2023-03-15T05:03:49;100675.13;;;21.09;61.89
13709;BME280;54933;51.908;7.730;2023-03-15T05:06:15;100685.91;;;21.09;61.71
13709;BME280;54933;51.908;7.730;2023-03-15T05:08:40;100695.88;;;21.09;61.92
13709;BME280;54933;51.908;7.730;2023-03-15T05:11:05;100695.06;;;21.08;61.58
13709;BME280;54933;51.908;7.730;2023-03-15T05:13:30;100701.06;;;21.10;61.77
13709;BME280;54933;51.908;7.730;2023-03-15T05:15:56;100695.66;;;21.10;61.64
13709;BME280;54933;51.908;7.730;2023-03-15T05:18:21;100697.53;;;21.10;61.70
13709;BME280;54933;51.908;7.730;2023-03-15T05:20:47;100692.97;;;21.10;61.60
13709;BME280;54933;51.908;7.730;2023-03-15T05:23:13;100694.59;;;21.11;61.77
13709;BME280;54933;51.908;7.730;2023-03-15T05:25:38;100695.66;;;21.10;61.80
13709;BME280;54933;51.908;7.730;2023-03-15T05:28:04;100701.06;;;21.10;61.66
13709;BME280;54933;51.908;7.730;2023-03-15T05:30:30;100706.47;;;21.10;61.47
13709;BME280;54933;51.908;7.730;2023-03-15T05:32:55;100709.63;;;21.07;61.26
13709;BME280;54933;51.908;7.730;2023-03-15T05:35:21;100715.03;;;21.07;61.21
13709;BME280;54933;51.908;7.730;2023-03-15T05:37:48;100726.84;;;21.06;61.38
13709;BME280;54933;51.908;7.730;2023-03-15T05:40:13;100735.81;;;21.07;61.24
13709;BME280;54933;51.908;7.730;2023-03-15T05:42:39;100737.47;;;21.08;61.44
13709;BME280;54933;51.908;7.730;2023-03-15T05:45:05;100738.28;;;21.08;61.63
13709;BME280;54933;51.908;7.730;2023-03-15T05:47:31;100748.88;;;21.10;61.63
13709;BME280;54933;51.908;7.730;2023-03-15T05:49:56;100754.28;;;21.10;61.88
13709;BME280;54933;51.908;7.730;2023-03-15T05:52:22;100757.81;;;21.10;61.77
13709;BME280;54933;51.908;7.730;2023-03-15T05:54:48;100758.88;;;21.09;61.54
13709;BME280;54933;51.908;7.730;2023-03-15T05:57:13;100773.19;;;21.10;61.43
13709;BME280;54933;51.908;7.730;2023-03-15T05:59:38;100780.50;;;21.09;61.47
13709;BME280;54933;51.908;7.730;2023-03-15T06:02:03;100777.78;;;21.09;61.52
13709;BME280;54933;51.908;7.730;2023-03-15T06:04:29;100783.19;;;21.09;61.79
13709;BME280;54933;51.908;7.730;2023-03-15T06:06:54;100787.31;;;21.12;61.58
13709;BME280;54933;51.908;7.730;2023-03-15T06:09:19;100794.59;;;21.11;61.63
13709;BME280;54933;51.908;7.730;2023-03-15T06:11:45;100795.19;;;21.13;61.60
13709;BME280;54933;51.908;7.730;2023-03-15T06:14:10;100796.47;;;21.11;61.93
13709;BME280;54933;51.908;7.730;2023-03-15T06:16:35;100797.72;;;21.08;61.86
13709;BME280;54933;51.908;7.730;2023-03-15T06:19:00;100802.31;;;21.08;62.15
13709;BME280;54933;51.908;7.730;2023-03-15T06:21:26;100806.88;;;21.07;62.51
13709;BME280;54933;51.908;7.730;2023-03-15T06:23:51;100812.28;;;21.07;62.42
13709;BME280;54933;51.908;7.730;2023-03-15T06:26:16;100819.34;;;21.08;62.54
13709;BME280;54933;51.908;7.730;2023-03-15T06:28:43;100815.63;;;21.09;62.49
13709;BME280;54933;51.908;7.730;2023-03-15T06:31:10;100822.66;;;21.10;62.37
13709;BME280;54933;51.908;7.730;2023-03-15T06:33:36;100823.72;;;21.09;62.41
13709;BME280;54933;51.908;7.730;2023-03-15T06:36:02;100817.25;;;21.10;62.25
13709;BME280;54933;51.908;7.730;2023-03-15T06:38:28;100822.66;;;21.10;62.13
13709;BME280;54933;51.908;7.730;2023-03-15T06:40:54;100828.91;;;21.11;62.21
13709;BME280;54933;51.908;7.730;2023-03-15T06:43:20;100828.69;;;21.12;62.27
13709;BME280;54933;51.908;7.730;2023-03-15T06:45:45;100836.78;;;21.12;62.06
13709;BME280;54933;51.908;7.730;2023-03-15T06:48:12;100843.84;;;21.13;62.09
13709;BME280;54933;51.908;7.730;2023-03-15T06:50:38;100839.38;;;20.88;61.18
13709;BME280;54933;51.908;7.730;2023-03-15T06:53:03;100869.59;;;17.06;58.25
13709;BME280;54933;51.908;7.730;2023-03-15T06:55:28;100890.88;;;15.60;56.21
13709;BME280;54933;51.908;7.730;2023-03-15T06:57:53;100901.44;;;17.09;56.92
13709;BME280;54933;51.908;7.730;2023-03-15T07:00:19;100894.34;;;18.21;59.33
13709;BME280;54933;51.908;7.730;2023-03-15T07:02:44;100886.16;;;19.04;60.41
13709;BME280;54933;51.908;7.730;2023-03-15T07:05:10;100879.75;;;19.59;60.87
13709;BME280;54933;51.908;7.730;2023-03-15T07:07:35;100891.00;;;19.95;60.49
13709;BME280;54933;51.908;7.730;2023-03-15T07:10:00;100876.91;;;20.19;60.47
13709;BME280;54933;51.908;7.730;2023-03-15T07:12:26;100891.59;;;20.36;60.15
13709;BME280;54933;51.908;7.730;2023-03-15T07:14:51;100894.28;;;20.49;59.71
13709;BME280;54933;51.908;7.730;2023-03-15T07:17:16;100890.97;;;20.60;59.55
13709;BME280;54933;51.908;7.730;2023-03-15T07:19:41;100902.38;;;20.69;59.27
13709;BME280;54933;51.908;7.730;2023-03-15T07:22:07;100899.66;;;20.75;59.15
13709;BME280;54933;51.908;7.730;2023-03-15T07:24:32;100891.72;;;20.80;58.99
13709;BME280;54933;51.908;7.730;2023-03-15T07:26:57;100894.03;;;20.83;58.73
13709;BME280;54933;51.908;7.730;2023-03-15T07:29:23;100896.31;;;20.86;58.76
13709;BME280;54933;51.908;7.730;2023-03-15T07:31:49;100893.78;;;20.91;58.65
13709;BME280;54933;51.908;7.730;2023-03-15T07:34:14;100904.16;;;20.94;58.74
13709;BME280;54933;51.908;7.730;2023-03-15T07:36:40;100910.00;;;20.98;58.65
13709;BME280;54933;51.908;7.730;2023-03-15T07:39:05;100912.50;;;20.99;58.75
13709;BME280;54933;51.908;7.730;2023-03-15T07:41:30;100916.41;;;21.03;58.59
13709;BME280;54933;51.908;7.730;2023-03-15T07:43:56;100917.88;;;21.06;58.75
13709;BME280;54933;51.908;7.730;2023-03-15T07:46:21;100932.59;;;21.10;58.62
13709;BME280;54933;51.908;7.730;2023-03-15T07:48:47;100933.22;;;21.12;58.60
13709;BME280;54933;51.908;7.730;2023-03-15T07:51:12;100944.44;;;21.15;58.62
13709;BME280;54933;51.908;7.730;2023-03-15T07:53:37;100941.31;;;21.18;58.62
13709;BME280;54933;51.908;7.730;2023-03-15T07:56:03;100944.41;;;21.22;58.70
13709;BME280;54933;51.908;7.730;2023-03-15T07:58:28;100945.63;;;21.26;58.56
13709;BME280;54933;51.908;7.730;2023-03-15T08:00:55;100950.63;;;21.29;58.69
13709;BME280;54933;51.908;7.730;2023-03-15T08:03:20;100950.41;;;21.30;58.69
13709;BME280;54933;51.908;7.730;2023-03-15T08:05:46;100961.81;;;21.32;58.48
13709;BME280;54933;51.908;7.730;2023-03-15T08:08:11;100963.28;;;21.35;58.86
13709;BME280;54933;51.908;7.730;2023-03-15T08:10:36;100953.53;;;21.34;58.38
13709;BME280;54933;51.908;7.730;2023-03-15T08:13:02;100962.84;;;21.38;58.41
13709;BME280;54933;51.908;7.730;2023-03-15T08:15:27;100961.63;;;21.40;58.55
13709;BME280;54933;51.908;7.730;2023-03-15T08:17:52;100967.59;;;21.42;58.66
13709;BME280;54933;51.908;7.730;2023-03-15T08:20:18;100972.00;;;21.43;58.63
13709;BME280;54933;51.908;7.730;2023-03-15T08:22:44;100979.03;;;21.44;58.78
13709;BME280;54933;51.908;7.730;2023-03-15T08:25:12;100985.06;;;21.46;58.56
13709;BME280;54933;51.908;7.730;2023-03-15T08:27:38;100995.69;;;21.48;58.51
13709;BME280;54933;51.908;7.730;2023-03-15T08:30:04;100997.09;;;21.50;58.85
13709;BME280;54933;51.908;7.730;2023-03-15T08:32:32;100998.56;;;21.53;58.69
13709;BME280;54933;51.908;7.730;2023-03-15T08:34:58;101010.81;;;21.55;58.78
13709;BME280;54933;51.908;7.730;2023-03-15T08:37:23;101016.00;;;21.57;58.76
13709;BME280;54933;51.908;7.730;2023-03-15T08:39:48;101019.53;;;21.58;58.48
13709;BME280;54933;51.908;7.730;2023-03-15T08:42:22;101021.19;;;21.58;58.46
13709;BME280;54933;51.908;7.730;2023-03-15T08:44:47;101020.16;;;21.60;58.61
13709;BME280;54933;51.908;7.730;2023-03-15T08:47:12;101028.06;;;21.61;58.59
13709;BME280;54933;51.908;7.730;2023-03-15T08:49:37;101036.19;;;21.61;58.72
13709;BME280;54933;51.908;7.730;2023-03-15T08:52:03;101041.16;;;21.64;58.73
13709;BME280;54933;51.908;7.730;2023-03-15T08:54:28;101045.31;;;21.67;58.79
13709;BME280;54933;51.908;7.730;2023-03-15T08:56:53;101051.53;;;21.67;58.72
13709;BME280;54933;51.908;7.730;2023-03-15T08:59:19;101056.50;;;21.70;58.28
13709;BME280;54933;51.908;7.730;2023-03-15T09:01:45;101055.50;;;21.71;58.25
13709;BME280;54933;51.908;7.730;2023-03-15T09:04:10;101062.34;;;21.74;58.50
13709;BME280;54933;51.908;7.730;2023-03-15T09:06:35;101061.31;;;21.75;58.38
13709;BME280;54933;51.908;7.730;2023-03-15T09:09:01;101059.22;;;21.77;58.49
13709;BME280;54933;51.908;7.730;2023-03-15T09:11:26;101059.00;;;21.78;58.53
13709;BME280;54933;51.908;7.730;2023-03-15T09:13:52;101062.56;;;21.79;58.67
13709;BME280;54933;51.908;7.730;2023-03-15T09:16:17;101062.34;;;21.80;58.57
13709;BME280;54933;51.908;7.730;2023-03-15T09:18:42;101052.34;;;21.81;58.58
13709;BME280;54933;51.908;7.730;2023-03-15T09:21:09;101060.25;;;21.82;58.35
13709;BME280;54933;51.908;7.730;2023-03-15T09:23:34;101064.81;;;21.82;58.55
13709;BME280;54933;51.908;7.730;2023-03-15T09:25:59;101062.97;;;21.82;58.49
13709;BME280;54933;51.908;7.730;2023-03-15T09:28:25;101069.81;;;21.85;58.57
13709;BME280;54933;51.908;7.730;2023-03-15T09:30:51;101078.97;;;21.84;58.35
13709;BME280;54933;51.908;7.730;2023-03-15T09:33:17;101069.81;;;21.85;58.62
13709;BME280;54933;51.908;7.730;2023-03-15T09:35:42;101073.97;;;21.87;58.78
13709;BME280;54933;51.908;7.730;2023-03-15T09:38:08;101072.91;;;21.88;58.48
13709;BME280;54933;51.908;7.730;2023-03-15T09:40:38;101080.00;;;21.89;58.44
13709;BME280;54933;51.908;7.730;2023-03-15T09:45:55;101088.53;;;21.93;58.35
13709;BME280;54933;51.908;7.730;2023-03-15T09:48:43;101083.91;;;21.93;58.33
13709;BME280;54933;51.908;7.730;2023-03-15T09:53:56;101090.78;;;21.96;58.29
13709;BME280;54933;51.908;7.730;2023-03-15T09:56:26;101091.38;;;21.98;58.20
13709;BME280;54933;51.908;7.730;2023-03-15T09:58:56;101085.97;;;21.98;58.43
13709;BME280;54933;51.908;7.730;2023-03-15T10:01:30;101091.19;;;21.99;58.49
13709;BME280;54933;51.908;7.730;2023-03-15T10:03:56;101094.72;;;22.00;58.41
13709;BME280;54933;51.908;7.730;2023-03-15T10:06:25;101083.66;;;22.01;58.23
13709;BME280;54933;51.908;7.730;2023-03-15T10:08:55;101086.38;;;22.01;58.52
13709;BME280;54933;51.908;7.730;2023-03-15T10:12:00;101088.06;;;22.02;58.20
13709;BME280;54933;51.908;7.730;2023-03-15T10:14:56;101086.16;;;22.03;58.12
13709;BME280;54933;51.908;7.730;2023-03-15T10:17:27;101090.31;;;22.05;58.21
13709;BME280;54933;51.908;7.730;2023-03-15T10:20:03;101086.78;;;22.05;58.26
13709;BME280;54933;51.908;7.730;2023-03-15T10:22:39;101085.75;;;22.06;58.34
13709;BME280;54933;51.908;7.730;2023-03-15T10:25:22;101080.94;;;22.08;58.25
13709;BME280;54933;51.908;7.730;2023-03-15T10:27:56;101087.19;;;22.08;58.31
13709;BME280;54933;51.908;7.730;2023-03-15T10:30:29;101091.53;;;22.09;58.27
13709;BME280;54933;51.908;7.730;2023-03-15T10:32:59;101094.03;;;22.11;58.40
13709;BME280;54933;51.908;7.730;2023-03-15T10:35:26;101093.00;;;22.12;58.39
13709;BME280;54933;51.908;7.730;2023-03-15T10:37:51;101090.06;;;22.13;58.22
13709;BME280;54933;51.908;7.730;2023-03-15T10:40:41;101089.22;;;22.13;58.30
13709;BME280;54933;51.908;7.730;2023-03-15T10:43:20;101086.31;;;22.14;58.46
13709;BME280;54933;51.908;7.730;2023-03-15T10:46:00;101086.31;;;22.14;58.07
13709;BME280;54933;51.908;7.730;2023-03-15T10:48:34;101087.16;;;22.15;58.10
13709;BME280;54933;51.908;7.730;2023-03-15T10:53:50;101096.91;;;22.16;57.95
13709;BME280;54933;51.908;7.730;2023-03-15T10:56:22;101090.47;;;22.17;57.90
13709;BME280;54933;51.908;7.730;2023-03-15T10:58:52;101088.56;;;22.17;57.88
13709;BME280;54933;51.908;7.730;2023-03-15T11:01:25;101093.81;;;22.19;57.71
13709;BME280;54933;51.908;7.730;2023-03-15T11:04:08;101102.50;;;22.21;57.69
13709;BME280;54933;51.908;7.730;2023-03-15T11:09:16;101105.84;;;22.23;57.69
13709;BME280;54933;51.908;7.730;2023-03-15T11:11:54;101106.69;;;22.23;57.55
13709;BME280;54933;51.908;7.730;2023-03-15T11:14:21;101106.47;;;22.25;57.44
13709;BME280;54933;51.908;7.730;2023-03-15T11:16:49;101114.38;;;22.26;57.54
13709;BME280;54933;51.908;7.730;2023-03-15T11:19:18;101100.84;;;22.26;57.52
13709;BME280;54933;51.908;7.730;2023-03-15T11:21:44;101107.91;;;22.27;57.50
13709;BME280;54933;51.908;7.730;2023-03-15T11:24:21;101111.44;;;22.28;57.58
13709;BME280;54933;51.908;7.730;2023-03-15T11:26:47;101110.00;;;22.25;57.27
13709;BME280;54933;51.908;7.730;2023-03-15T11:29:22;101110.81;;;22.26;57.01
13709;BME280;54933;51.908;7.730;2023-03-15T11:31:48;101109.16;;;22.25;57.18
13709;BME280;54933;51.908;7.730;2023-03-15T11:34:36;101115.44;;;22.25;56.94
13709;BME280;54933;51.908;7.730;2023-03-15T11:37:33;101121.66;;;22.26;56.56
13709;BME280;54933;51.908;7.730;2023-03-15T11:40:22;101121.66;;;22.26;56.64
13709;BME280;54933;51.908;7.730;2023-03-15T11:45:33;101132.03;;;22.29;56.42
13709;BME280;54933;51.908;7.730;2023-03-15T11:48:10;101129.34;;;22.29;56.52
13709;BME280;54933;51.908;7.730;2023-03-15T11:50:38;101126.41;;;22.30;56.16
13709;BME280;54933;51.908;7.730;2023-03-15T11:53:04;101129.94;;;22.31;56.11
13709;BME280;54933;51.908;7.730;2023-03-15T11:55:31;101137.06;;;22.32;55.78
13709;BME280;54933;51.908;7.730;2023-03-15T11:58:27;101137.06;;;22.32;55.98
13709;BME280;54933;51.908;7.730;2023-03-15T12:00:59;101136.00;;;22.33;55.77
13709;BME280;54933;51.908;7.730;2023-03-15T12:06:05;101140.34;;;22.34;55.63
13709;BME280;54933;51.908;7.730;2023-03-15T12:08:41;101149.09;;;22.36;55.40
13709;BME280;54933;51.908;7.730;2023-03-15T12:16:24;101142.63;;;22.37;55.17
13709;BME280;54933;51.908;7.730;2023-03-15T12:18:51;101144.72;;;22.35;54.81
13709;BME280;54933;51.908;7.730;2023-03-15T12:21:33;101137.84;;;22.32;54.60
13709;BME280;54933;51.908;7.730;2023-03-15T12:24:02;101133.50;;;22.31;54.59
13709;BME280;54933;51.908;7.730;2023-03-15T12:32:18;101127.50;;;22.23;51.28
13709;BME280;54933;51.908;7.730;2023-03-15T12:34:53;101129.16;;;22.24;50.57
13709;BME280;54933;51.908;7.730;2023-03-15T12:37:42;101136.25;;;22.25;50.45
13709;BME280;54933;51.908;7.730;2023-03-15T12:55:47;101126.88;;;22.21;49.75
13709;BME280;54933;51.908;7.730;2023-03-15T12:58:15;101131.03;;;22.23;49.23
13709;BME280;54933;51.908;7.730;2023-03-15T13:00:42;101127.50;;;22.23;49.50
13709;BME280;54933;51.908;7.730;2023-03-15T13:03:13;101121.88;;;22.24;49.71
13709;BME280;54933;51.908;7.730;2023-03-15T13:06:18;101106.47;;;22.25;49.91
13709;BME280;54933;51.908;7.730;2023-03-15T13:09:02;101120.00;;;22.25;50.06
13709;BME280;54933;51.908;7.730;2023-03-15T13:17:27;101097.78;;;21.52;45.11
13709;BME280;54933;51.908;7.730;2023-03-15T13:23:19;101121.75;;;22.06;44.25
13709;BME280;54933;51.908;7.730;2023-03-15T13:28:38;101123.59;;;22.19;45.50
13709;BME280;54933;51.908;7.730;2023-03-15T13:31:11;101122.09;;;22.23;46.15
13709;BME280;54933;51.908;7.730;2023-03-15T13:33:38;101125.41;;;22.25;46.19
13709;BME280;54933;51.908;7.730;2023-03-15T13:36:15;101129.34;;;22.29;46.96
13709;BME280;54933;51.908;7.730;2023-03-15T13:38:47;101136.22;;;22.31;46.90
13709;BME280;54933;51.908;7.730;2023-03-15T13:41:23;101140.34;;;22.34;47.22
13709;BME280;54933;51.908;7.730;2023-03-15T13:43:50;101146.38;;;22.36;47.46
13709;BME280;54933;51.908;7.730;2023-03-15T13:46:18;101138.88;;;22.38;47.93
13709;BME280;54933;51.908;7.730;2023-03-15T13:48:45;101150.34;;;22.40;47.71
13709;BME280;54933;51.908;7.730;2023-03-15T13:51:21;101138.41;;;22.03;47.51
13709;BME280;54933;51.908;7.730;2023-03-15T13:53:50;101142.97;;;22.09;47.46
13709;BME280;54933;51.908;7.730;2023-03-15T13:56:28;101143.78;;;22.16;48.35